sensor_id;sensor_type;location;lat;lon;timestamp;P1;durP1;ratioP1;P2;durP2;ratioP2
24477;SDS011;17860;50.846;5.714;2023-03-14T09:57:56;1.70;;;1.00;;
24477;SDS011;17860;50.846;5.714;2023-03-14T10:00:27;1.88;;;0.80;;
24477;SDS011;17860;50.846;5.714;2023-03-14T10:02:57;1.63;;;0.88;;
24477;SDS011;17860;50.846;5.714;2023-03-14T10:05:38;0.93;;;0.70;;
24477;SDS011;17860;50.846;5.714;2023-03-14T10:08:09;1.45;;;0.93;;
24477;SDS011;17860;50.846;5.714;2023-03-14T10:10:37;3.15;;;1.48;;
24477;SDS011;17860;50.846;5.714;2023-03-14T10:13:11;1.92;;;0.80;;
24477;SDS011;17860;50.846;5.714;2023-03-14T10:15:41;2.50;;;0.80;;
24477;SDS011;17860;50.846;5.714;2023-03-14T10:18:13;0.80;;;0.80;;
24477;SDS011;17860;50.846;5.714;2023-03-14T10:20:41;0.75;;;0.70;;
24477;SDS011;17860;50.846;5.714;2023-03-14T10:23:22;2.53;;;1.00;;
24477;SDS011;17860;50.846;5.714;2023-03-14T10:26:02;1.35;;;0.98;;
24477;SDS011;17860;50.846;5.714;2023-03-14T10:28:34;1.05;;;0.80;;
24477;SDS011;17860;50.846;5.714;2023-03-14T10:31:05;0.70;;;0.40;;
24477;SDS011;17860;50.846;5.714;2023-03-14T10:33:33;0.85;;;0.57;;
24477;SDS011;17860;50.846;5.714;2023-03-14T10:36:03;0.40;;;0.40;;
24477;SDS011;17860;50.846;5.714;2023-03-14T10:38:33;0.40;;;0.40;;
24477;SDS011;17860;50.846;5.714;2023-03-14T10:41:03;1.55;;;0.47;;
24477;SDS011;17860;50.846;5.714;2023-03-14T10:43:44;0.75;;;0.60;;
24477;SDS011;17860;50.846;5.714;2023-03-14T10:46:16;0.40;;;0.40;;
24477;SDS011;17860;50.846;5.714;2023-03-14T10:48:45;0.50;;;0.50;;
24477;SDS011;17860;50.846;5.714;2023-03-14T10:51:18;0.60;;;0.55;;
24477;SDS011;17860;50.846;5.714;2023-03-14T10:53:55;1.70;;;0.50;;
24477;SDS011;17860;50.846;5.714;2023-03-14T10:56:24;0.80;;;0.60;;
24477;SDS011;17860;50.846;5.714;2023-03-14T10:58:56;1.55;;;0.60;;
24477;SDS011;17860;50.846;5.714;2023-03-14T11:01:27;0.40;;;0.40;;
24477;SDS011;17860;50.846;5.714;2023-03-14T11:04:05;0.90;;;0.40;;
24477;SDS011;17860;50.846;5.714;2023-03-14T11:06:41;1.30;;;0.52;;
24477;SDS011;17860;50.846;5.714;2023-03-14T11:09:13;0.40;;;0.40;;
24477;SDS011;17860;50.846;5.714;2023-03-14T11:11:49;0.40;;;0.40;;
24477;SDS011;17860;50.846;5.714;2023-03-14T11:14:20;0.52;;;0.43;;
24477;SDS011;17860;50.846;5.714;2023-03-14T11:16:53;0.95;;;0.40;;
24477;SDS011;17860;50.846;5.714;2023-03-14T11:22:24;0.47;;;0.40;;
24477;SDS011;17860;50.846;5.714;2023-03-14T11:25:01;1.00;;;0.52;;
24477;SDS011;17860;50.846;5.714;2023-03-14T11:27:56;0.40;;;0.30;;
24477;SDS011;17860;50.846;5.714;2023-03-14T11:30:31;0.65;;;0.40;;
24477;SDS011;17860;50.846;5.714;2023-03-14T11:33:03;0.47;;;0.38;;
24477;SDS011;17860;50.846;5.714;2023-03-14T11:35:36;0.95;;;0.55;;
24477;SDS011;17860;50.846;5.714;2023-03-14T11:38:11;1.80;;;0.30;;
24477;SDS011;17860;50.846;5.714;2023-03-14T11:40:41;0.30;;;0.30;;
24477;SDS011;17860;50.846;5.714;2023-03-14T11:43:12;0.50;;;0.40;;
24477;SDS011;17860;50.846;5.714;2023-03-14T11:45:46;0.85;;;0.40;;
24477;SDS011;17860;50.846;5.714;2023-03-14T11:48:18;0.38;;;0.38;;
24477;SDS011;17860;50.846;5.714;2023-03-14T11:50:53;0.32;;;0.30;;
24477;SDS011;17860;50.846;5.714;2023-03-14T11:53:26;0.40;;;0.40;;
24477;SDS011;17860;50.846;5.714;2023-03-14T11:56:02;0.65;;;0.40;;
24477;SDS011;17860;50.846;5.714;2023-03-14T11:58:31;1.95;;;0.60;;
24477;SDS011;17860;50.846;5.714;2023-03-14T12:01:07;0.50;;;0.50;;
24477;SDS011;17860;50.846;5.714;2023-03-14T12:03:39;1.02;;;0.80;;
24477;SDS011;17860;50.846;5.714;2023-03-14T12:06:13;0.77;;;0.68;;
24477;SDS011;17860;50.846;5.714;2023-03-14T12:08:46;0.60;;;0.60;;
24477;SDS011;17860;50.846;5.714;2023-03-14T12:11:25;1.10;;;0.55;;
24477;SDS011;17860;50.846;5.714;2023-03-14T12:14:00;0.75;;;0.73;;
24477;SDS011;17860;50.846;5.714;2023-03-14T12:16:36;1.25;;;0.50;;
24477;SDS011;17860;50.846;5.714;2023-03-14T12:19:14;0.75;;;0.45;;
24477;SDS011;17860;50.846;5.714;2023-03-14T12:22:21;0.85;;;0.40;;
24477;SDS011;17860;50.846;5.714;2023-03-14T12:24:55;1.38;;;0.50;;
24477;SDS011;17860;50.846;5.714;2023-03-14T12:33:12;0.75;;;0.47;;
24477;SDS011;17860;50.846;5.714;2023-03-14T12:36:04;0.57;;;0.30;;
24477;SDS011;17860;50.846;5.714;2023-03-14T12:38:56;0.40;;;0.40;;
24477;SDS011;17860;50.846;5.714;2023-03-14T12:41:35;0.80;;;0.55;;
24477;SDS011;17860;50.846;5.714;2023-03-14T12:50:18;0.67;;;0.50;;
24477;SDS011;17860;50.846;5.714;2023-03-14T12:53:10;1.70;;;0.70;;
24477;SDS011;17860;50.846;5.714;2023-03-14T12:55:58;0.40;;;0.40;;
24477;SDS011;17860;50.846;5.714;2023-03-14T12:58:33;0.73;;;0.60;;
24477;SDS011;17860;50.846;5.714;2023-03-14T13:01:07;2.05;;;0.60;;
24477;SDS011;17860;50.846;5.714;2023-03-14T13:03:43;2.30;;;0.80;;
24477;SDS011;17860;50.846;5.714;2023-03-14T13:12:01;0.87;;;0.80;;
24477;SDS011;17860;50.846;5.714;2023-03-14T13:14:33;0.55;;;0.50;;
24477;SDS011;17860;50.846;5.714;2023-03-14T13:17:01;1.05;;;0.82;;
24477;SDS011;17860;50.846;5.714;2023-03-14T13:19:29;1.33;;;1.10;;
24477;SDS011;17860;50.846;5.714;2023-03-14T13:22:01;1.30;;;0.88;;
24477;SDS011;17860;50.846;5.714;2023-03-14T13:26:59;2.65;;;1.00;;
24477;SDS011;17860;50.846;5.714;2023-03-14T13:29:27;4.35;;;1.45;;
24477;SDS011;17860;50.846;5.714;2023-03-14T13:31:57;2.33;;;1.00;;
24477;SDS011;17860;50.846;5.714;2023-03-14T13:34:26;5.13;;;2.40;;
24477;SDS011;17860;50.846;5.714;2023-03-14T13:36:54;4.03;;;1.17;;
24477;SDS011;17860;50.846;5.714;2023-03-14T13:39:23;4.70;;;1.30;;
24477;SDS011;17860;50.846;5.714;2023-03-14T13:41:53;6.80;;;1.88;;
24477;SDS011;17860;50.846;5.714;2023-03-14T13:44:25;7.07;;;2.22;;
24477;SDS011;17860;50.846;5.714;2023-03-14T13:46:57;9.77;;;2.15;;
24477;SDS011;17860;50.846;5.714;2023-03-14T13:51:54;3.97;;;1.30;;
24477;SDS011;17860;50.846;5.714;2023-03-14T13:54:21;7.75;;;1.65;;
24477;SDS011;17860;50.846;5.714;2023-03-14T13:59:26;5.43;;;1.10;;
24477;SDS011;17860;50.846;5.714;2023-03-14T14:01:54;4.93;;;1.52;;
24477;SDS011;17860;50.846;5.714;2023-03-14T14:04:24;5.38;;;1.40;;
24477;SDS011;17860;50.846;5.714;2023-03-14T14:06:54;11.15;;;2.25;;
24477;SDS011;17860;50.846;5.714;2023-03-14T14:09:24;12.38;;;3.45;;
24477;SDS011;17860;50.846;5.714;2023-03-14T14:11:55;7.40;;;1.55;;
24477;SDS011;17860;50.846;5.714;2023-03-14T14:14:25;9.50;;;2.08;;
24477;SDS011;17860;50.846;5.714;2023-03-14T14:16:58;5.68;;;1.35;;
24477;SDS011;17860;50.846;5.714;2023-03-14T14:19:28;6.78;;;1.85;;
24477;SDS011;17860;50.846;5.714;2023-03-14T14:21:58;2.55;;;1.20;;
24477;SDS011;17860;50.846;5.714;2023-03-14T14:24:29;5.07;;;1.45;;
24477;SDS011;17860;50.846;5.714;2023-03-14T14:26:59;4.93;;;1.40;;
24477;SDS011;17860;50.846;5.714;2023-03-14T14:29:28;3.83;;;1.40;;
24477;SDS011;17860;50.846;5.714;2023-03-14T14:32:00;4.90;;;1.03;;
24477;SDS011;17860;50.846;5.714;2023-03-14T14:34:29;3.55;;;1.00;;
24477;SDS011;17860;50.846;5.714;2023-03-14T14:37:13;4.63;;;1.42;;
24477;SDS011;17860;50.846;5.714;2023-03-14T14:39:45;4.25;;;1.20;;
24477;SDS011;17860;50.846;5.714;2023-03-14T14:42:13;3.22;;;1.67;;
24477;SDS011;17860;50.846;5.714;2023-03-14T14:44:42;5.32;;;1.00;;
24477;SDS011;17860;50.846;5.714;2023-03-14T14:47:12;3.15;;;0.90;;
24477;SDS011;17860;50.846;5.714;2023-03-14T14:49:43;4.25;;;1.83;;
24477;SDS011;17860;50.846;5.714;2023-03-14T14:52:12;4.57;;;1.10;;
24477;SDS011;17860;50.846;5.714;2023-03-14T14:54:43;9.00;;;1.92;;
24477;SDS011;17860;50.846;5.714;2023-03-14T14:57:15;7.28;;;1.45;;
24477;SDS011;17860;50.846;5.714;2023-03-14T14:59:45;2.15;;;1.13;;
24477;SDS011;17860;50.846;5.714;2023-03-14T15:04:56;5.25;;;1.65;;
24477;SDS011;17860;50.846;5.714;2023-03-14T15:07:23;2.42;;;1.10;;
24477;SDS011;17860;50.846;5.714;2023-03-14T15:09:51;3.22;;;1.73;;
24477;SDS011;17860;50.846;5.714;2023-03-14T15:12:19;2.88;;;1.08;;
24477;SDS011;17860;50.846;5.714;2023-03-14T15:14:49;5.43;;;1.30;;
24477;SDS011;17860;50.846;5.714;2023-03-14T15:17:17;2.70;;;1.30;;
24477;SDS011;17860;50.846;5.714;2023-03-14T15:19:44;4.47;;;1.40;;
24477;SDS011;17860;50.846;5.714;2023-03-14T15:22:12;5.13;;;1.58;;
24477;SDS011;17860;50.846;5.714;2023-03-14T15:24:40;4.18;;;1.40;;
